KPTW/PTW METAR and TAF weather

Enter ICAO airport designator
Station Type Date Time Source
KPTW METAR 2023/01/23 17:01 UTC NOAA

KPTW 231701Z AUTO 29008KT 6SM -RA BR SCT011 BKN019 OVC025 02/01 A2966 RMK AO2 P0001 T00170011


Station Type Date Time Source
KPTW Decoded METAR 2023/01/23 17:01 UTC NOAA

POTTSTOWN LIMERICK AIRPORT, PA, United States (KPTW) 40-14N 075-33W 89M
Jan 23, 2023 - 12:01 PM EST / 2023.01.23 1701 UTC
Wind: from the WNW (290 degrees) at 9 MPH (8 KT):0
Visibility: 6 mile(s):0
Sky conditions: overcast
Weather: light rain; mist
Precipitation last hour: 0.01 inches
Temperature: 35.1 F (1.7 C)
Dew Point: 34.0 F (1.1 C)
Relative Humidity: 95%
Pressure (altimeter): 29.66 in. Hg (1004 hPa)
ob: KPTW 231701Z AUTO 29008KT 6SM -RA BR SCT011 BKN019 OVC025 02/01 A2966 RMK AO2 P0001 T00170011
cycle: 17

Station Type Date Time Source
KPTW TAF UTC NOAA

Error!

Example: see airport list